sensor_id;sensor_type;location;lat;lon;timestamp;temperature;humidity
33460;DHT22;19795;53.160;6.612;2023-05-10T03:45:25;12.10;99.90
33460;DHT22;19795;53.160;6.612;2023-05-10T03:47:50;12.10;99.90
33460;DHT22;19795;53.160;6.612;2023-05-10T03:52:42;12.10;99.90
33460;DHT22;19795;53.160;6.612;2023-05-10T03:55:07;12.10;99.90
33460;DHT22;19795;53.160;6.612;2023-05-10T03:57:33;12.20;99.90
33460;DHT22;19795;53.160;6.612;2023-05-10T03:59:59;12.20;99.90
33460;DHT22;19795;53.160;6.612;2023-05-10T04:02:25;12.10;99.90
33460;DHT22;19795;53.160;6.612;2023-05-10T04:04:51;12.10;99.90
33460;DHT22;19795;53.160;6.612;2023-05-10T04:07:16;12.10;99.90
33460;DHT22;19795;53.160;6.612;2023-05-10T04:09:43;12.10;99.90
33460;DHT22;19795;53.160;6.612;2023-05-10T04:12:08;12.10;99.90
33460;DHT22;19795;53.160;6.612;2023-05-10T04:14:35;12.20;99.90
33460;DHT22;19795;53.160;6.612;2023-05-10T04:17:00;12.10;99.90
33460;DHT22;19795;53.160;6.612;2023-05-10T04:19:30;12.10;99.90
33460;DHT22;19795;53.160;6.612;2023-05-10T04:21:55;12.00;99.90
33460;DHT22;19795;53.160;6.612;2023-05-10T04:24:21;12.10;99.90
33460;DHT22;19795;53.160;6.612;2023-05-10T04:26:47;12.10;99.90
33460;DHT22;19795;53.160;6.612;2023-05-10T04:29:12;12.10;99.90
33460;DHT22;19795;53.160;6.612;2023-05-10T04:31:38;12.10;99.90
33460;DHT22;19795;53.160;6.612;2023-05-10T04:34:04;12.10;99.90
33460;DHT22;19795;53.160;6.612;2023-05-10T04:36:30;12.10;99.90
33460;DHT22;19795;53.160;6.612;2023-05-10T04:38:59;12.10;99.90
33460;DHT22;19795;53.160;6.612;2023-05-10T04:41:24;12.10;99.90
33460;DHT22;19795;53.160;6.612;2023-05-10T04:43:50;12.10;99.90
33460;DHT22;19795;53.160;6.612;2023-05-10T04:46:16;12.20;99.90
33460;DHT22;19795;53.160;6.612;2023-05-10T04:48:42;12.10;99.90
33460;DHT22;19795;53.160;6.612;2023-05-10T04:51:07;12.10;99.90
33460;DHT22;19795;53.160;6.612;2023-05-10T04:53:33;12.10;99.90
33460;DHT22;19795;53.160;6.612;2023-05-10T04:55:59;12.10;99.90
33460;DHT22;19795;53.160;6.612;2023-05-10T04:58:24;12.10;99.90
33460;DHT22;19795;53.160;6.612;2023-05-10T05:00:50;12.00;99.90
33460;DHT22;19795;53.160;6.612;2023-05-10T05:03:16;12.10;99.90
33460;DHT22;19795;53.160;6.612;2023-05-10T05:05:41;12.00;99.90
33460;DHT22;19795;53.160;6.612;2023-05-10T05:08:07;12.00;99.90
33460;DHT22;19795;53.160;6.612;2023-05-10T05:10:33;12.10;99.90
33460;DHT22;19795;53.160;6.612;2023-05-10T05:13:01;12.10;99.90
33460;DHT22;19795;53.160;6.612;2023-05-10T05:15:27;12.00;99.90
33460;DHT22;19795;53.160;6.612;2023-05-10T05:17:53;12.00;99.90
33460;DHT22;19795;53.160;6.612;2023-05-10T05:20:18;11.90;99.90
33460;DHT22;19795;53.160;6.612;2023-05-10T05:22:44;11.90;99.90
33460;DHT22;19795;53.160;6.612;2023-05-10T05:25:10;12.00;99.90
33460;DHT22;19795;53.160;6.612;2023-05-10T05:27:37;12.00;99.90
33460;DHT22;19795;53.160;6.612;2023-05-10T05:30:03;12.10;99.90
33460;DHT22;19795;53.160;6.612;2023-05-10T05:32:29;12.10;99.90
33460;DHT22;19795;53.160;6.612;2023-05-10T05:34:55;12.10;99.90
33460;DHT22;19795;53.160;6.612;2023-05-10T05:37:21;12.10;99.90
33460;DHT22;19795;53.160;6.612;2023-05-10T05:39:50;12.00;99.90
33460;DHT22;19795;53.160;6.612;2023-05-10T05:42:15;12.10;99.90
33460;DHT22;19795;53.160;6.612;2023-05-10T05:44:43;12.10;99.90
33460;DHT22;19795;53.160;6.612;2023-05-10T05:47:09;12.10;99.90
33460;DHT22;19795;53.160;6.612;2023-05-10T05:49:34;12.20;99.90
33460;DHT22;19795;53.160;6.612;2023-05-10T05:52:02;12.10;99.90
33460;DHT22;19795;53.160;6.612;2023-05-10T05:54:28;12.20;99.90
33460;DHT22;19795;53.160;6.612;2023-05-10T05:56:55;12.20;99.90
33460;DHT22;19795;53.160;6.612;2023-05-10T05:59:21;12.20;99.90
33460;DHT22;19795;53.160;6.612;2023-05-10T06:01:47;12.20;99.90
33460;DHT22;19795;53.160;6.612;2023-05-10T06:04:13;12.20;99.90
33460;DHT22;19795;53.160;6.612;2023-05-10T06:06:38;12.10;99.90
33460;DHT22;19795;53.160;6.612;2023-05-10T06:09:07;12.20;99.90
33460;DHT22;19795;53.160;6.612;2023-05-10T06:11:33;12.30;99.90
33460;DHT22;19795;53.160;6.612;2023-05-10T06:13:58;12.20;99.90
33460;DHT22;19795;53.160;6.612;2023-05-10T06:16:24;12.20;99.90
33460;DHT22;19795;53.160;6.612;2023-05-10T06:18:50;12.20;99.90
33460;DHT22;19795;53.160;6.612;2023-05-10T06:21:16;12.20;99.90
33460;DHT22;19795;53.160;6.612;2023-05-10T06:23:42;12.20;99.90
33460;DHT22;19795;53.160;6.612;2023-05-10T06:26:08;12.20;99.90
33460;DHT22;19795;53.160;6.612;2023-05-10T06:28:34;12.20;99.90
33460;DHT22;19795;53.160;6.612;2023-05-10T06:31:00;12.10;99.90
33460;DHT22;19795;53.160;6.612;2023-05-10T06:33:25;12.20;99.90
33460;DHT22;19795;53.160;6.612;2023-05-10T06:35:51;12.10;99.90
33460;DHT22;19795;53.160;6.612;2023-05-10T06:38:17;12.20;99.90
33460;DHT22;19795;53.160;6.612;2023-05-10T06:40:43;12.10;99.90
33460;DHT22;19795;53.160;6.612;2023-05-10T06:43:09;12.20;99.90
33460;DHT22;19795;53.160;6.612;2023-05-10T06:45:41;12.10;99.90
33460;DHT22;19795;53.160;6.612;2023-05-10T06:48:07;12.10;99.90
33460;DHT22;19795;53.160;6.612;2023-05-10T06:50:33;12.10;99.90
33460;DHT22;19795;53.160;6.612;2023-05-10T06:52:59;12.10;99.90
33460;DHT22;19795;53.160;6.612;2023-05-10T06:55:25;12.20;99.90
33460;DHT22;19795;53.160;6.612;2023-05-10T06:57:51;12.10;99.90
33460;DHT22;19795;53.160;6.612;2023-05-10T07:00:18;12.10;99.90
33460;DHT22;19795;53.160;6.612;2023-05-10T07:02:44;12.00;99.90
33460;DHT22;19795;53.160;6.612;2023-05-10T07:05:09;12.00;99.90
33460;DHT22;19795;53.160;6.612;2023-05-10T07:07:35;12.00;99.90
33460;DHT22;19795;53.160;6.612;2023-05-10T07:10:01;12.00;99.90
33460;DHT22;19795;53.160;6.612;2023-05-10T07:12:28;12.00;99.90
33460;DHT22;19795;53.160;6.612;2023-05-10T07:14:53;12.00;99.90
33460;DHT22;19795;53.160;6.612;2023-05-10T07:17:19;12.00;99.90
33460;DHT22;19795;53.160;6.612;2023-05-10T07:19:45;11.90;99.90
33460;DHT22;19795;53.160;6.612;2023-05-10T07:22:11;11.90;99.90
33460;DHT22;19795;53.160;6.612;2023-05-10T07:24:37;12.00;99.90
33460;DHT22;19795;53.160;6.612;2023-05-10T07:27:02;12.10;99.90
33460;DHT22;19795;53.160;6.612;2023-05-10T07:29:29;12.10;99.90
33460;DHT22;19795;53.160;6.612;2023-05-10T07:31:55;12.20;99.90
33460;DHT22;19795;53.160;6.612;2023-05-10T07:34:21;12.30;99.90
33460;DHT22;19795;53.160;6.612;2023-05-10T07:36:50;12.50;99.90
33460;DHT22;19795;53.160;6.612;2023-05-10T07:39:16;12.40;99.90
33460;DHT22;19795;53.160;6.612;2023-05-10T07:41:42;12.40;99.90
33460;DHT22;19795;53.160;6.612;2023-05-10T07:44:07;12.60;99.90
33460;DHT22;19795;53.160;6.612;2023-05-10T07:46:33;12.60;99.90
33460;DHT22;19795;53.160;6.612;2023-05-10T07:48:59;12.70;99.90
33460;DHT22;19795;53.160;6.612;2023-05-10T07:51:24;12.80;99.90
33460;DHT22;19795;53.160;6.612;2023-05-10T07:53:50;12.60;99.90
33460;DHT22;19795;53.160;6.612;2023-05-10T07:58:47;12.50;99.90
33460;DHT22;19795;53.160;6.612;2023-05-10T08:01:13;12.40;99.90
33460;DHT22;19795;53.160;6.612;2023-05-10T08:03:38;12.50;99.90
33460;DHT22;19795;53.160;6.612;2023-05-10T08:06:04;12.40;99.90
33460;DHT22;19795;53.160;6.612;2023-05-10T08:08:30;12.40;99.90
33460;DHT22;19795;53.160;6.612;2023-05-10T08:10:56;12.40;99.90
33460;DHT22;19795;53.160;6.612;2023-05-10T08:13:21;12.40;99.90
33460;DHT22;19795;53.160;6.612;2023-05-10T08:15:47;12.40;99.90
33460;DHT22;19795;53.160;6.612;2023-05-10T08:18:13;12.40;99.90
33460;DHT22;19795;53.160;6.612;2023-05-10T08:20:38;12.40;99.90
33460;DHT22;19795;53.160;6.612;2023-05-10T08:23:04;12.40;99.90
33460;DHT22;19795;53.160;6.612;2023-05-10T08:25:31;12.50;99.90
33460;DHT22;19795;53.160;6.612;2023-05-10T08:27:57;12.60;99.90
33460;DHT22;19795;53.160;6.612;2023-05-10T08:30:22;12.70;99.90
33460;DHT22;19795;53.160;6.612;2023-05-10T08:32:48;12.50;99.90
33460;DHT22;19795;53.160;6.612;2023-05-10T08:35:14;12.50;99.90
33460;DHT22;19795;53.160;6.612;2023-05-10T08:37:39;12.50;99.90
33460;DHT22;19795;53.160;6.612;2023-05-10T08:40:05;12.50;99.90
33460;DHT22;19795;53.160;6.612;2023-05-10T08:42:34;12.60;99.90
33460;DHT22;19795;53.160;6.612;2023-05-10T08:45:02;12.50;99.90
33460;DHT22;19795;53.160;6.612;2023-05-10T08:47:29;12.60;99.90
33460;DHT22;19795;53.160;6.612;2023-05-10T08:49:55;12.70;99.90
33460;DHT22;19795;53.160;6.612;2023-05-10T08:52:24;12.70;99.90
33460;DHT22;19795;53.160;6.612;2023-05-10T08:54:50;12.70;99.90
33460;DHT22;19795;53.160;6.612;2023-05-10T08:57:16;12.70;99.90
33460;DHT22;19795;53.160;6.612;2023-05-10T08:59:42;12.70;99.90
33460;DHT22;19795;53.160;6.612;2023-05-10T09:02:09;12.80;99.90
33460;DHT22;19795;53.160;6.612;2023-05-10T09:04:36;12.80;99.90
33460;DHT22;19795;53.160;6.612;2023-05-10T09:07:01;12.90;99.90
33460;DHT22;19795;53.160;6.612;2023-05-10T09:09:28;12.90;99.90
33460;DHT22;19795;53.160;6.612;2023-05-10T09:11:54;13.00;99.90
33460;DHT22;19795;53.160;6.612;2023-05-10T09:14:20;13.10;99.90
33460;DHT22;19795;53.160;6.612;2023-05-10T09:16:47;13.00;99.90
33460;DHT22;19795;53.160;6.612;2023-05-10T09:19:13;13.00;99.90
33460;DHT22;19795;53.160;6.612;2023-05-10T09:21:38;13.00;99.90
33460;DHT22;19795;53.160;6.612;2023-05-10T09:24:06;13.00;99.90
33460;DHT22;19795;53.160;6.612;2023-05-10T09:26:32;12.90;99.90
33460;DHT22;19795;53.160;6.612;2023-05-10T09:28:59;12.90;99.90
33460;DHT22;19795;53.160;6.612;2023-05-10T09:31:49;13.00;99.90
33460;DHT22;19795;53.160;6.612;2023-05-10T09:34:31;13.10;99.90
33460;DHT22;19795;53.160;6.612;2023-05-10T09:36:59;13.30;99.90
33460;DHT22;19795;53.160;6.612;2023-05-10T09:39:35;13.30;99.90
33460;DHT22;19795;53.160;6.612;2023-05-10T09:42:08;13.20;99.90
33460;DHT22;19795;53.160;6.612;2023-05-10T09:44:35;13.30;99.90
33460;DHT22;19795;53.160;6.612;2023-05-10T09:47:01;13.50;99.90
33460;DHT22;19795;53.160;6.612;2023-05-10T09:49:28;13.50;99.90
33460;DHT22;19795;53.160;6.612;2023-05-10T09:52:01;13.80;99.90
33460;DHT22;19795;53.160;6.612;2023-05-10T09:54:28;14.10;99.90
33460;DHT22;19795;53.160;6.612;2023-05-10T09:56:53;14.00;99.90
33460;DHT22;19795;53.160;6.612;2023-05-10T09:59:19;13.90;99.90
33460;DHT22;19795;53.160;6.612;2023-05-10T10:01:50;13.80;99.90
33460;DHT22;19795;53.160;6.612;2023-05-10T10:04:17;13.80;99.90
33460;DHT22;19795;53.160;6.612;2023-05-10T10:06:42;13.70;99.90
33460;DHT22;19795;53.160;6.612;2023-05-10T10:09:09;13.90;99.90
33460;DHT22;19795;53.160;6.612;2023-05-10T10:11:36;13.80;99.90
33460;DHT22;19795;53.160;6.612;2023-05-10T10:14:02;13.80;99.90
33460;DHT22;19795;53.160;6.612;2023-05-10T10:16:29;14.00;99.90
33460;DHT22;19795;53.160;6.612;2023-05-10T10:18:55;14.30;99.90
33460;DHT22;19795;53.160;6.612;2023-05-10T10:21:22;14.50;99.90
33460;DHT22;19795;53.160;6.612;2023-05-10T10:23:47;14.70;99.90
33460;DHT22;19795;53.160;6.612;2023-05-10T10:26:14;14.50;99.90
33460;DHT22;19795;53.160;6.612;2023-05-10T10:29:00;14.40;99.90
33460;DHT22;19795;53.160;6.612;2023-05-10T10:31:39;14.60;99.90
33460;DHT22;19795;53.160;6.612;2023-05-10T10:34:07;14.80;99.90
33460;DHT22;19795;53.160;6.612;2023-05-10T10:36:54;14.70;99.90
33460;DHT22;19795;53.160;6.612;2023-05-10T10:39:20;14.60;99.90
33460;DHT22;19795;53.160;6.612;2023-05-10T10:52:21;15.20;99.90
33460;DHT22;19795;53.160;6.612;2023-05-10T10:57:50;14.80;99.90
33460;DHT22;19795;53.160;6.612;2023-05-10T11:00:26;14.70;99.90
33460;DHT22;19795;53.160;6.612;2023-05-10T11:07:55;14.90;99.90
33460;DHT22;19795;53.160;6.612;2023-05-10T11:10:22;15.10;99.90
33460;DHT22;19795;53.160;6.612;2023-05-10T11:13:08;15.20;99.90
33460;DHT22;19795;53.160;6.612;2023-05-10T11:15:39;15.50;99.90
33460;DHT22;19795;53.160;6.612;2023-05-10T11:18:25;15.60;99.90
33460;DHT22;19795;53.160;6.612;2023-05-10T11:20:58;16.10;99.90
33460;DHT22;19795;53.160;6.612;2023-05-10T11:23:33;16.10;99.90
33460;DHT22;19795;53.160;6.612;2023-05-10T11:26:13;15.80;99.90
33460;DHT22;19795;53.160;6.612;2023-05-10T11:28:43;15.60;99.90
33460;DHT22;19795;53.160;6.612;2023-05-10T11:31:09;15.50;99.90
33460;DHT22;19795;53.160;6.612;2023-05-10T11:33:49;15.60;99.90
33460;DHT22;19795;53.160;6.612;2023-05-10T11:36:17;15.50;99.90
33460;DHT22;19795;53.160;6.612;2023-05-10T11:38:44;15.40;99.90
33460;DHT22;19795;53.160;6.612;2023-05-10T11:41:10;15.40;99.90
33460;DHT22;19795;53.160;6.612;2023-05-10T11:43:40;15.40;99.90
33460;DHT22;19795;53.160;6.612;2023-05-10T11:46:11;15.20;99.90
33460;DHT22;19795;53.160;6.612;2023-05-10T11:48:39;15.20;99.90
33460;DHT22;19795;53.160;6.612;2023-05-10T11:51:06;15.10;99.90
33460;DHT22;19795;53.160;6.612;2023-05-10T11:53:32;15.20;99.90
33460;DHT22;19795;53.160;6.612;2023-05-10T11:56:09;15.00;99.90
33460;DHT22;19795;53.160;6.612;2023-05-10T11:58:37;14.80;99.90
33460;DHT22;19795;53.160;6.612;2023-05-10T12:01:04;14.70;99.90
33460;DHT22;19795;53.160;6.612;2023-05-10T12:03:31;14.70;99.90
33460;DHT22;19795;53.160;6.612;2023-05-10T12:05:57;14.70;99.90
33460;DHT22;19795;53.160;6.612;2023-05-10T12:08:25;14.60;99.90
33460;DHT22;19795;53.160;6.612;2023-05-10T12:10:53;14.90;99.90
33460;DHT22;19795;53.160;6.612;2023-05-10T12:13:19;14.80;99.90
33460;DHT22;19795;53.160;6.612;2023-05-10T12:15:46;14.80;99.90
33460;DHT22;19795;53.160;6.612;2023-05-10T12:18:13;14.80;99.90
33460;DHT22;19795;53.160;6.612;2023-05-10T12:20:39;14.80;99.90
33460;DHT22;19795;53.160;6.612;2023-05-10T12:23:07;15.10;99.90
33460;DHT22;19795;53.160;6.612;2023-05-10T12:25:35;15.20;99.90
33460;DHT22;19795;53.160;6.612;2023-05-10T12:28:04;15.40;99.90
33460;DHT22;19795;53.160;6.612;2023-05-10T12:30:32;15.60;99.90
33460;DHT22;19795;53.160;6.612;2023-05-10T12:33:06;15.60;99.90
33460;DHT22;19795;53.160;6.612;2023-05-10T12:35:33;15.70;99.90
33460;DHT22;19795;53.160;6.612;2023-05-10T12:37:59;15.80;99.90
33460;DHT22;19795;53.160;6.612;2023-05-10T12:40:25;15.90;99.90
33460;DHT22;19795;53.160;6.612;2023-05-10T12:42:51;15.80;99.90
33460;DHT22;19795;53.160;6.612;2023-05-10T12:45:17;16.00;99.90
33460;DHT22;19795;53.160;6.612;2023-05-10T12:47:43;15.70;99.90
33460;DHT22;19795;53.160;6.612;2023-05-10T12:50:09;15.70;99.90
33460;DHT22;19795;53.160;6.612;2023-05-10T12:52:36;15.40;99.90
33460;DHT22;19795;53.160;6.612;2023-05-10T12:55:02;15.40;99.90
33460;DHT22;19795;53.160;6.612;2023-05-10T12:57:28;15.40;99.90
33460;DHT22;19795;53.160;6.612;2023-05-10T12:59:54;15.50;99.90
33460;DHT22;19795;53.160;6.612;2023-05-10T13:02:20;15.20;99.90
33460;DHT22;19795;53.160;6.612;2023-05-10T13:04:48;15.20;99.90
33460;DHT22;19795;53.160;6.612;2023-05-10T13:07:14;15.10;99.90
33460;DHT22;19795;53.160;6.612;2023-05-10T13:09:39;15.10;99.90
33460;DHT22;19795;53.160;6.612;2023-05-10T13:12:05;15.20;99.90
33460;DHT22;19795;53.160;6.612;2023-05-10T13:14:31;15.20;99.90
33460;DHT22;19795;53.160;6.612;2023-05-10T13:16:57;15.20;99.90
33460;DHT22;19795;53.160;6.612;2023-05-10T13:19:23;15.20;99.90
33460;DHT22;19795;53.160;6.612;2023-05-10T13:21:48;15.10;99.90
33460;DHT22;19795;53.160;6.612;2023-05-10T13:24:14;15.10;99.90
33460;DHT22;19795;53.160;6.612;2023-05-10T13:26:40;15.00;99.90
33460;DHT22;19795;53.160;6.612;2023-05-10T13:29:06;15.00;99.90
33460;DHT22;19795;53.160;6.612;2023-05-10T13:31:32;15.10;99.90
33460;DHT22;19795;53.160;6.612;2023-05-10T13:33:58;15.20;99.90
33460;DHT22;19795;53.160;6.612;2023-05-10T13:36:23;15.30;99.90
33460;DHT22;19795;53.160;6.612;2023-05-10T13:38:49;15.30;99.90
33460;DHT22;19795;53.160;6.612;2023-05-10T13:41:15;15.40;99.90
33460;DHT22;19795;53.160;6.612;2023-05-10T13:43:40;15.40;99.90
33460;DHT22;19795;53.160;6.612;2023-05-10T13:46:06;15.40;99.90
33460;DHT22;19795;53.160;6.612;2023-05-10T13:48:32;15.30;99.90
33460;DHT22;19795;53.160;6.612;2023-05-10T13:50:57;15.30;99.90
33460;DHT22;19795;53.160;6.612;2023-05-10T13:53:23;15.30;99.90
33460;DHT22;19795;53.160;6.612;2023-05-10T13:55:49;15.50;99.90
33460;DHT22;19795;53.160;6.612;2023-05-10T13:58:14;15.20;99.90
33460;DHT22;19795;53.160;6.612;2023-05-10T14:00:40;15.10;99.90
33460;DHT22;19795;53.160;6.612;2023-05-10T14:03:06;15.10;99.90
33460;DHT22;19795;53.160;6.612;2023-05-10T14:05:34;15.20;99.90
33460;DHT22;19795;53.160;6.612;2023-05-10T14:08:00;15.30;99.90
33460;DHT22;19795;53.160;6.612;2023-05-10T14:10:25;15.40;99.90
33460;DHT22;19795;53.160;6.612;2023-05-10T14:12:51;15.50;99.90
33460;DHT22;19795;53.160;6.612;2023-05-10T14:15:17;15.50;99.90
33460;DHT22;19795;53.160;6.612;2023-05-10T14:17:46;15.30;99.90
33460;DHT22;19795;53.160;6.612;2023-05-10T14:20:35;15.20;99.90
33460;DHT22;19795;53.160;6.612;2023-05-10T14:23:33;15.40;99.90
33460;DHT22;19795;53.160;6.612;2023-05-10T14:26:02;15.40;99.90
33460;DHT22;19795;53.160;6.612;2023-05-10T14:28:28;15.20;99.90
33460;DHT22;19795;53.160;6.612;2023-05-10T14:30:54;15.20;99.90
33460;DHT22;19795;53.160;6.612;2023-05-10T14:33:20;15.30;99.90
33460;DHT22;19795;53.160;6.612;2023-05-10T14:35:46;15.40;99.90
33460;DHT22;19795;53.160;6.612;2023-05-10T14:38:13;15.30;99.90
33460;DHT22;19795;53.160;6.612;2023-05-10T14:40:38;15.30;99.90
33460;DHT22;19795;53.160;6.612;2023-05-10T14:43:04;15.40;99.90
33460;DHT22;19795;53.160;6.612;2023-05-10T14:45:30;15.50;99.90
33460;DHT22;19795;53.160;6.612;2023-05-10T14:48:05;15.60;99.90
33460;DHT22;19795;53.160;6.612;2023-05-10T14:50:40;15.90;99.90
33460;DHT22;19795;53.160;6.612;2023-05-10T14:53:06;16.10;99.90
33460;DHT22;19795;53.160;6.612;2023-05-10T14:55:32;16.10;99.90
33460;DHT22;19795;53.160;6.612;2023-05-10T14:58:02;16.20;99.90
33460;DHT22;19795;53.160;6.612;2023-05-10T15:00:31;16.10;99.90
33460;DHT22;19795;53.160;6.612;2023-05-10T15:02:57;16.50;99.90
33460;DHT22;19795;53.160;6.612;2023-05-10T15:05:23;16.50;99.90
33460;DHT22;19795;53.160;6.612;2023-05-10T15:07:48;16.70;99.90
33460;DHT22;19795;53.160;6.612;2023-05-10T15:10:14;16.60;99.90
33460;DHT22;19795;53.160;6.612;2023-05-10T15:12:40;16.60;99.90
33460;DHT22;19795;53.160;6.612;2023-05-10T15:15:07;16.80;99.90
33460;DHT22;19795;53.160;6.612;2023-05-10T15:17:33;16.60;99.90
33460;DHT22;19795;53.160;6.612;2023-05-10T15:19:59;16.70;99.90
33460;DHT22;19795;53.160;6.612;2023-05-10T15:22:25;16.90;99.90
33460;DHT22;19795;53.160;6.612;2023-05-10T15:24:51;16.80;99.90
33460;DHT22;19795;53.160;6.612;2023-05-10T15:27:16;16.80;99.90
33460;DHT22;19795;53.160;6.612;2023-05-10T15:29:42;16.70;99.90
33460;DHT22;19795;53.160;6.612;2023-05-10T15:32:08;16.50;99.90
33460;DHT22;19795;53.160;6.612;2023-05-10T15:34:33;16.40;99.90
33460;DHT22;19795;53.160;6.612;2023-05-10T15:36:59;15.90;99.90
33460;DHT22;19795;53.160;6.612;2023-05-10T15:39:25;16.20;99.90
33460;DHT22;19795;53.160;6.612;2023-05-10T15:41:51;16.10;99.90
33460;DHT22;19795;53.160;6.612;2023-05-10T15:44:16;16.20;99.90
33460;DHT22;19795;53.160;6.612;2023-05-10T15:46:47;16.20;99.90
33460;DHT22;19795;53.160;6.612;2023-05-10T15:49:19;16.20;99.90
33460;DHT22;19795;53.160;6.612;2023-05-10T15:51:45;16.00;99.90
33460;DHT22;19795;53.160;6.612;2023-05-10T15:54:15;16.00;99.90
33460;DHT22;19795;53.160;6.612;2023-05-10T15:57:00;15.90;99.90
33460;DHT22;19795;53.160;6.612;2023-05-10T15:59:26;15.60;99.90
33460;DHT22;19795;53.160;6.612;2023-05-10T16:01:51;15.60;99.90
33460;DHT22;19795;53.160;6.612;2023-05-10T16:04:17;15.50;99.90
33460;DHT22;19795;53.160;6.612;2023-05-10T16:06:43;15.60;99.90
33460;DHT22;19795;53.160;6.612;2023-05-10T16:09:08;15.60;99.90
33460;DHT22;19795;53.160;6.612;2023-05-10T16:11:35;15.50;99.90
33460;DHT22;19795;53.160;6.612;2023-05-10T16:14:00;15.40;99.90
33460;DHT22;19795;53.160;6.612;2023-05-10T16:16:26;15.40;99.90
33460;DHT22;19795;53.160;6.612;2023-05-10T16:18:52;15.20;99.90
33460;DHT22;19795;53.160;6.612;2023-05-10T16:21:18;15.10;99.90
33460;DHT22;19795;53.160;6.612;2023-05-10T16:23:44;14.90;99.90
33460;DHT22;19795;53.160;6.612;2023-05-10T16:26:11;14.80;99.90
33460;DHT22;19795;53.160;6.612;2023-05-10T16:28:37;14.70;99.90
33460;DHT22;19795;53.160;6.612;2023-05-10T16:31:04;14.50;99.90
33460;DHT22;19795;53.160;6.612;2023-05-10T16:33:29;14.50;99.90
33460;DHT22;19795;53.160;6.612;2023-05-10T16:35:55;14.50;99.90
33460;DHT22;19795;53.160;6.612;2023-05-10T16:38:21;14.40;99.90
33460;DHT22;19795;53.160;6.612;2023-05-10T16:40:47;14.40;99.90
33460;DHT22;19795;53.160;6.612;2023-05-10T16:43:12;14.50;99.90
33460;DHT22;19795;53.160;6.612;2023-05-10T16:45:38;14.50;99.90
33460;DHT22;19795;53.160;6.612;2023-05-10T16:48:04;14.40;99.90
33460;DHT22;19795;53.160;6.612;2023-05-10T16:50:30;14.40;99.90
33460;DHT22;19795;53.160;6.612;2023-05-10T16:52:55;14.50;99.90
33460;DHT22;19795;53.160;6.612;2023-05-10T16:55:21;14.40;99.90
33460;DHT22;19795;53.160;6.612;2023-05-10T16:57:47;14.50;99.90
33460;DHT22;19795;53.160;6.612;2023-05-10T17:00:14;14.50;99.90
33460;DHT22;19795;53.160;6.612;2023-05-10T17:02:40;14.70;99.90
33460;DHT22;19795;53.160;6.612;2023-05-10T17:05:06;14.70;99.90
33460;DHT22;19795;53.160;6.612;2023-05-10T17:07:32;14.70;99.90
33460;DHT22;19795;53.160;6.612;2023-05-10T17:09:57;14.60;99.90
33460;DHT22;19795;53.160;6.612;2023-05-10T17:12:24;14.60;99.90
33460;DHT22;19795;53.160;6.612;2023-05-10T17:14:50;14.60;99.90
33460;DHT22;19795;53.160;6.612;2023-05-10T17:17:16;14.70;99.90
33460;DHT22;19795;53.160;6.612;2023-05-10T17:19:44;14.60;99.90
33460;DHT22;19795;53.160;6.612;2023-05-10T17:22:11;14.60;99.90
33460;DHT22;19795;53.160;6.612;2023-05-10T17:24:36;14.60;99.90
33460;DHT22;19795;53.160;6.612;2023-05-10T17:27:02;14.60;99.90
33460;DHT22;19795;53.160;6.612;2023-05-10T17:29:28;14.50;99.90
33460;DHT22;19795;53.160;6.612;2023-05-10T17:31:57;14.40;99.90
33460;DHT22;19795;53.160;6.612;2023-05-10T17:34:22;14.30;99.90
33460;DHT22;19795;53.160;6.612;2023-05-10T17:36:48;14.30;99.90
33460;DHT22;19795;53.160;6.612;2023-05-10T17:39:14;14.20;99.90
33460;DHT22;19795;53.160;6.612;2023-05-10T17:41:40;14.20;99.90
33460;DHT22;19795;53.160;6.612;2023-05-10T17:44:05;14.00;99.90
33460;DHT22;19795;53.160;6.612;2023-05-10T17:46:31;13.90;99.90
33460;DHT22;19795;53.160;6.612;2023-05-10T17:48:58;13.90;99.90
33460;DHT22;19795;53.160;6.612;2023-05-10T17:51:23;13.80;99.90
33460;DHT22;19795;53.160;6.612;2023-05-10T17:53:49;13.70;99.90
33460;DHT22;19795;53.160;6.612;2023-05-10T17:56:14;13.70;99.90
33460;DHT22;19795;53.160;6.612;2023-05-10T17:58:40;13.70;99.90
33460;DHT22;19795;53.160;6.612;2023-05-10T18:01:06;13.80;99.90
33460;DHT22;19795;53.160;6.612;2023-05-10T18:03:33;13.70;99.90
33460;DHT22;19795;53.160;6.612;2023-05-10T18:06:03;13.60;99.90
33460;DHT22;19795;53.160;6.612;2023-05-10T18:08:29;13.50;99.90
33460;DHT22;19795;53.160;6.612;2023-05-10T18:10:55;13.50;99.90
33460;DHT22;19795;53.160;6.612;2023-05-10T18:13:21;13.40;99.90
33460;DHT22;19795;53.160;6.612;2023-05-10T18:15:47;13.50;99.90
33460;DHT22;19795;53.160;6.612;2023-05-10T18:18:13;13.60;99.90
33460;DHT22;19795;53.160;6.612;2023-05-10T18:20:38;13.40;99.90
33460;DHT22;19795;53.160;6.612;2023-05-10T18:23:05;13.20;99.90
33460;DHT22;19795;53.160;6.612;2023-05-10T18:25:31;13.30;99.90
33460;DHT22;19795;53.160;6.612;2023-05-10T18:27:57;13.30;99.90
33460;DHT22;19795;53.160;6.612;2023-05-10T18:30:23;13.30;99.90
33460;DHT22;19795;53.160;6.612;2023-05-10T18:32:48;13.10;99.90
33460;DHT22;19795;53.160;6.612;2023-05-10T18:35:17;13.10;99.90
33460;DHT22;19795;53.160;6.612;2023-05-10T18:37:43;13.00;99.90
33460;DHT22;19795;53.160;6.612;2023-05-10T18:40:09;12.90;99.90
33460;DHT22;19795;53.160;6.612;2023-05-10T18:42:36;12.90;99.90
33460;DHT22;19795;53.160;6.612;2023-05-10T18:45:02;12.80;99.90
33460;DHT22;19795;53.160;6.612;2023-05-10T18:47:28;12.80;99.90
33460;DHT22;19795;53.160;6.612;2023-05-10T18:49:54;12.70;99.90
33460;DHT22;19795;53.160;6.612;2023-05-10T18:52:20;12.60;99.90
33460;DHT22;19795;53.160;6.612;2023-05-10T18:54:45;12.60;99.90
33460;DHT22;19795;53.160;6.612;2023-05-10T18:57:12;12.60;99.90
33460;DHT22;19795;53.160;6.612;2023-05-10T18:59:38;12.60;99.90
33460;DHT22;19795;53.160;6.612;2023-05-10T19:02:04;12.60;99.90
33460;DHT22;19795;53.160;6.612;2023-05-10T19:04:30;12.60;99.90
33460;DHT22;19795;53.160;6.612;2023-05-10T19:06:55;12.60;99.90
33460;DHT22;19795;53.160;6.612;2023-05-10T19:09:21;12.60;99.90
33460;DHT22;19795;53.160;6.612;2023-05-10T19:11:47;12.50;99.90
33460;DHT22;19795;53.160;6.612;2023-05-10T19:14:13;12.60;99.90
33460;DHT22;19795;53.160;6.612;2023-05-10T19:16:39;12.60;99.90
33460;DHT22;19795;53.160;6.612;2023-05-10T19:19:04;12.70;99.90
33460;DHT22;19795;53.160;6.612;2023-05-10T19:21:30;12.60;99.90
33460;DHT22;19795;53.160;6.612;2023-05-10T19:23:57;12.60;99.90
33460;DHT22;19795;53.160;6.612;2023-05-10T19:26:23;12.60;99.90
33460;DHT22;19795;53.160;6.612;2023-05-10T19:28:53;12.60;99.90
33460;DHT22;19795;53.160;6.612;2023-05-10T19:31:19;12.50;99.90
33460;DHT22;19795;53.160;6.612;2023-05-10T19:33:45;12.50;99.90
33460;DHT22;19795;53.160;6.612;2023-05-10T19:36:11;12.60;99.90